sensor_id;sensor_type;location;lat;lon;timestamp;temperature;humidity
5461;DHT22;2753;49.196;8.286;2023-10-31T00:02:14;12.60;99.90
5461;DHT22;2753;49.196;8.286;2023-10-31T00:04:41;12.60;99.90
5461;DHT22;2753;49.196;8.286;2023-10-31T00:07:06;12.60;99.90
5461;DHT22;2753;49.196;8.286;2023-10-31T00:09:32;12.60;99.90
5461;DHT22;2753;49.196;8.286;2023-10-31T00:11:58;12.50;99.90
5461;DHT22;2753;49.196;8.286;2023-10-31T00:14:25;12.50;99.90
5461;DHT22;2753;49.196;8.286;2023-10-31T00:16:50;12.50;99.90
5461;DHT22;2753;49.196;8.286;2023-10-31T00:19:16;12.50;99.90
5461;DHT22;2753;49.196;8.286;2023-10-31T00:21:42;12.50;99.90
5461;DHT22;2753;49.196;8.286;2023-10-31T00:24:08;12.50;99.90
5461;DHT22;2753;49.196;8.286;2023-10-31T00:26:34;12.50;99.90
5461;DHT22;2753;49.196;8.286;2023-10-31T00:28:59;12.40;99.90
5461;DHT22;2753;49.196;8.286;2023-10-31T00:31:25;12.40;99.90
5461;DHT22;2753;49.196;8.286;2023-10-31T00:33:50;12.40;99.90
5461;DHT22;2753;49.196;8.286;2023-10-31T00:36:16;12.40;99.90
5461;DHT22;2753;49.196;8.286;2023-10-31T00:38:42;12.40;99.90
5461;DHT22;2753;49.196;8.286;2023-10-31T00:41:08;12.40;99.90
5461;DHT22;2753;49.196;8.286;2023-10-31T00:43:33;12.40;99.90
5461;DHT22;2753;49.196;8.286;2023-10-31T00:45:59;12.40;99.90
5461;DHT22;2753;49.196;8.286;2023-10-31T00:48:25;12.40;99.90
5461;DHT22;2753;49.196;8.286;2023-10-31T00:50:50;12.40;99.90
5461;DHT22;2753;49.196;8.286;2023-10-31T00:53:16;12.40;99.90
5461;DHT22;2753;49.196;8.286;2023-10-31T00:55:42;12.30;99.90
5461;DHT22;2753;49.196;8.286;2023-10-31T00:58:09;12.30;99.90
5461;DHT22;2753;49.196;8.286;2023-10-31T01:00:35;12.30;99.90
5461;DHT22;2753;49.196;8.286;2023-10-31T01:03:03;12.30;99.90
5461;DHT22;2753;49.196;8.286;2023-10-31T01:05:28;12.30;99.90
5461;DHT22;2753;49.196;8.286;2023-10-31T01:07:54;12.20;99.90
5461;DHT22;2753;49.196;8.286;2023-10-31T01:10:21;12.20;99.90
5461;DHT22;2753;49.196;8.286;2023-10-31T01:12:46;12.20;99.90
5461;DHT22;2753;49.196;8.286;2023-10-31T01:15:12;12.30;99.90
5461;DHT22;2753;49.196;8.286;2023-10-31T01:17:38;12.20;99.90
5461;DHT22;2753;49.196;8.286;2023-10-31T01:20:05;12.20;99.90
5461;DHT22;2753;49.196;8.286;2023-10-31T01:22:31;12.20;99.90
5461;DHT22;2753;49.196;8.286;2023-10-31T01:24:57;12.20;99.90
5461;DHT22;2753;49.196;8.286;2023-10-31T01:27:22;12.20;99.90
5461;DHT22;2753;49.196;8.286;2023-10-31T01:29:48;12.20;99.90
5461;DHT22;2753;49.196;8.286;2023-10-31T01:32:14;12.20;99.90
5461;DHT22;2753;49.196;8.286;2023-10-31T01:34:40;12.10;99.90
5461;DHT22;2753;49.196;8.286;2023-10-31T01:37:06;12.10;99.90
5461;DHT22;2753;49.196;8.286;2023-10-31T01:39:31;12.00;99.90
5461;DHT22;2753;49.196;8.286;2023-10-31T01:41:57;12.00;99.90
5461;DHT22;2753;49.196;8.286;2023-10-31T01:44:23;12.00;99.90
5461;DHT22;2753;49.196;8.286;2023-10-31T01:46:48;12.00;99.90
5461;DHT22;2753;49.196;8.286;2023-10-31T01:49:14;12.00;99.90
5461;DHT22;2753;49.196;8.286;2023-10-31T01:51:41;11.90;99.90
5461;DHT22;2753;49.196;8.286;2023-10-31T01:54:08;11.90;99.90
5461;DHT22;2753;49.196;8.286;2023-10-31T01:56:35;11.90;99.90
5461;DHT22;2753;49.196;8.286;2023-10-31T01:59:01;11.80;99.90
5461;DHT22;2753;49.196;8.286;2023-10-31T02:01:27;11.90;99.90
5461;DHT22;2753;49.196;8.286;2023-10-31T02:03:53;11.90;99.90
5461;DHT22;2753;49.196;8.286;2023-10-31T02:06:19;11.90;99.90
5461;DHT22;2753;49.196;8.286;2023-10-31T02:08:48;11.90;99.90
5461;DHT22;2753;49.196;8.286;2023-10-31T02:11:14;11.80;99.90
5461;DHT22;2753;49.196;8.286;2023-10-31T02:13:39;11.80;99.90
5461;DHT22;2753;49.196;8.286;2023-10-31T02:16:05;11.80;99.90
5461;DHT22;2753;49.196;8.286;2023-10-31T02:18:32;11.80;99.90
5461;DHT22;2753;49.196;8.286;2023-10-31T02:20:58;11.80;99.90
5461;DHT22;2753;49.196;8.286;2023-10-31T02:26:46;11.70;99.90
5461;DHT22;2753;49.196;8.286;2023-10-31T02:29:11;11.70;99.90
5461;DHT22;2753;49.196;8.286;2023-10-31T02:31:37;11.60;99.90
5461;DHT22;2753;49.196;8.286;2023-10-31T02:34:04;11.60;99.90
5461;DHT22;2753;49.196;8.286;2023-10-31T02:36:29;11.60;99.90
5461;DHT22;2753;49.196;8.286;2023-10-31T02:38:55;11.50;99.90
5461;DHT22;2753;49.196;8.286;2023-10-31T02:41:21;11.50;99.90
5461;DHT22;2753;49.196;8.286;2023-10-31T02:43:47;11.50;99.90
5461;DHT22;2753;49.196;8.286;2023-10-31T02:46:12;11.50;99.90
5461;DHT22;2753;49.196;8.286;2023-10-31T02:48:40;11.40;99.90
5461;DHT22;2753;49.196;8.286;2023-10-31T02:51:06;11.30;99.90
5461;DHT22;2753;49.196;8.286;2023-10-31T02:53:33;11.30;99.90
5461;DHT22;2753;49.196;8.286;2023-10-31T02:55:59;11.30;99.90
5461;DHT22;2753;49.196;8.286;2023-10-31T02:58:25;11.40;99.90
5461;DHT22;2753;49.196;8.286;2023-10-31T03:00:50;11.40;99.90
5461;DHT22;2753;49.196;8.286;2023-10-31T03:03:16;11.30;99.90
5461;DHT22;2753;49.196;8.286;2023-10-31T03:05:42;11.30;99.90
5461;DHT22;2753;49.196;8.286;2023-10-31T03:08:08;11.30;99.90
5461;DHT22;2753;49.196;8.286;2023-10-31T03:10:37;11.40;99.90
5461;DHT22;2753;49.196;8.286;2023-10-31T03:13:03;11.40;99.90
5461;DHT22;2753;49.196;8.286;2023-10-31T03:15:29;11.40;99.90
5461;DHT22;2753;49.196;8.286;2023-10-31T03:17:55;11.30;99.90
5461;DHT22;2753;49.196;8.286;2023-10-31T03:20:21;11.30;99.90
5461;DHT22;2753;49.196;8.286;2023-10-31T03:22:46;11.40;99.90
5461;DHT22;2753;49.196;8.286;2023-10-31T03:25:12;11.30;99.90
5461;DHT22;2753;49.196;8.286;2023-10-31T03:27:38;11.40;99.90
5461;DHT22;2753;49.196;8.286;2023-10-31T03:30:04;11.40;99.90
5461;DHT22;2753;49.196;8.286;2023-10-31T03:32:30;11.30;99.90
5461;DHT22;2753;49.196;8.286;2023-10-31T03:34:55;11.30;99.90
5461;DHT22;2753;49.196;8.286;2023-10-31T03:37:21;11.30;99.90
5461;DHT22;2753;49.196;8.286;2023-10-31T03:39:47;11.30;99.90
5461;DHT22;2753;49.196;8.286;2023-10-31T03:42:12;11.30;99.90
5461;DHT22;2753;49.196;8.286;2023-10-31T03:44:38;11.30;99.90
5461;DHT22;2753;49.196;8.286;2023-10-31T03:47:04;11.30;99.90
5461;DHT22;2753;49.196;8.286;2023-10-31T03:49:30;11.30;99.90
5461;DHT22;2753;49.196;8.286;2023-10-31T03:51:56;11.40;99.90
5461;DHT22;2753;49.196;8.286;2023-10-31T03:54:22;11.40;99.90
5461;DHT22;2753;49.196;8.286;2023-10-31T03:56:48;11.30;99.90
5461;DHT22;2753;49.196;8.286;2023-10-31T03:59:14;11.30;99.90
5461;DHT22;2753;49.196;8.286;2023-10-31T04:01:39;11.40;99.90
5461;DHT22;2753;49.196;8.286;2023-10-31T04:04:06;11.40;99.90
5461;DHT22;2753;49.196;8.286;2023-10-31T04:06:31;11.40;99.90
5461;DHT22;2753;49.196;8.286;2023-10-31T04:08:57;11.40;99.90
5461;DHT22;2753;49.196;8.286;2023-10-31T04:11:23;11.40;99.90
5461;DHT22;2753;49.196;8.286;2023-10-31T04:13:49;11.40;99.90
5461;DHT22;2753;49.196;8.286;2023-10-31T04:16:15;11.40;99.90
5461;DHT22;2753;49.196;8.286;2023-10-31T04:18:41;11.40;99.90
5461;DHT22;2753;49.196;8.286;2023-10-31T04:21:06;11.40;99.90
5461;DHT22;2753;49.196;8.286;2023-10-31T04:23:32;11.40;99.90
5461;DHT22;2753;49.196;8.286;2023-10-31T04:25:58;11.40;99.90
5461;DHT22;2753;49.196;8.286;2023-10-31T04:28:24;11.40;99.90
5461;DHT22;2753;49.196;8.286;2023-10-31T04:30:49;11.30;99.90
5461;DHT22;2753;49.196;8.286;2023-10-31T04:33:15;11.40;99.90
5461;DHT22;2753;49.196;8.286;2023-10-31T04:35:41;11.40;99.90
5461;DHT22;2753;49.196;8.286;2023-10-31T04:38:07;11.40;99.90
5461;DHT22;2753;49.196;8.286;2023-10-31T04:40:33;11.40;99.90
5461;DHT22;2753;49.196;8.286;2023-10-31T04:42:58;11.40;99.90
5461;DHT22;2753;49.196;8.286;2023-10-31T04:45:24;11.40;99.90
5461;DHT22;2753;49.196;8.286;2023-10-31T04:47:50;11.40;99.90
5461;DHT22;2753;49.196;8.286;2023-10-31T04:50:15;11.30;99.90
5461;DHT22;2753;49.196;8.286;2023-10-31T04:52:41;11.30;99.90
5461;DHT22;2753;49.196;8.286;2023-10-31T04:55:07;11.30;99.90
5461;DHT22;2753;49.196;8.286;2023-10-31T04:57:33;11.30;99.90
5461;DHT22;2753;49.196;8.286;2023-10-31T04:59:59;11.30;99.90
5461;DHT22;2753;49.196;8.286;2023-10-31T05:02:25;11.30;99.90
5461;DHT22;2753;49.196;8.286;2023-10-31T05:04:51;11.30;99.90
5461;DHT22;2753;49.196;8.286;2023-10-31T05:07:18;11.30;99.90
5461;DHT22;2753;49.196;8.286;2023-10-31T05:09:43;11.30;99.90
5461;DHT22;2753;49.196;8.286;2023-10-31T05:12:09;11.30;99.90
5461;DHT22;2753;49.196;8.286;2023-10-31T05:14:35;11.30;99.90
5461;DHT22;2753;49.196;8.286;2023-10-31T05:17:01;11.30;99.90
5461;DHT22;2753;49.196;8.286;2023-10-31T05:19:27;11.30;99.90
5461;DHT22;2753;49.196;8.286;2023-10-31T05:21:52;11.30;99.90
5461;DHT22;2753;49.196;8.286;2023-10-31T05:24:18;11.20;99.90
5461;DHT22;2753;49.196;8.286;2023-10-31T05:26:44;11.20;99.90
5461;DHT22;2753;49.196;8.286;2023-10-31T05:29:13;11.20;99.90
5461;DHT22;2753;49.196;8.286;2023-10-31T05:31:38;11.20;99.90
5461;DHT22;2753;49.196;8.286;2023-10-31T05:34:04;11.20;99.90
5461;DHT22;2753;49.196;8.286;2023-10-31T05:36:30;11.20;99.90
5461;DHT22;2753;49.196;8.286;2023-10-31T05:38:56;11.10;99.90
5461;DHT22;2753;49.196;8.286;2023-10-31T05:41:22;11.20;99.90
5461;DHT22;2753;49.196;8.286;2023-10-31T05:43:51;11.20;99.90
5461;DHT22;2753;49.196;8.286;2023-10-31T05:46:17;11.20;99.90
5461;DHT22;2753;49.196;8.286;2023-10-31T05:48:45;11.10;99.90
5461;DHT22;2753;49.196;8.286;2023-10-31T05:51:15;11.10;99.90
5461;DHT22;2753;49.196;8.286;2023-10-31T05:53:44;11.10;99.90
5461;DHT22;2753;49.196;8.286;2023-10-31T05:56:11;11.10;99.90
5461;DHT22;2753;49.196;8.286;2023-10-31T05:58:38;11.10;99.90
5461;DHT22;2753;49.196;8.286;2023-10-31T06:01:04;11.10;99.90
5461;DHT22;2753;49.196;8.286;2023-10-31T06:03:30;11.20;99.90
5461;DHT22;2753;49.196;8.286;2023-10-31T06:05:56;11.20;99.90
5461;DHT22;2753;49.196;8.286;2023-10-31T06:08:21;11.20;99.90
5461;DHT22;2753;49.196;8.286;2023-10-31T06:10:52;11.20;99.90
5461;DHT22;2753;49.196;8.286;2023-10-31T06:13:18;11.20;99.90
5461;DHT22;2753;49.196;8.286;2023-10-31T06:15:44;11.20;99.90
5461;DHT22;2753;49.196;8.286;2023-10-31T06:18:09;11.20;99.90
5461;DHT22;2753;49.196;8.286;2023-10-31T06:20:35;11.20;99.90
5461;DHT22;2753;49.196;8.286;2023-10-31T06:23:02;11.20;99.90
5461;DHT22;2753;49.196;8.286;2023-10-31T06:25:32;11.10;99.90
5461;DHT22;2753;49.196;8.286;2023-10-31T06:27:57;11.20;99.90
5461;DHT22;2753;49.196;8.286;2023-10-31T06:30:24;11.20;99.90
5461;DHT22;2753;49.196;8.286;2023-10-31T06:32:53;11.20;99.90
5461;DHT22;2753;49.196;8.286;2023-10-31T06:35:19;11.10;99.90
5461;DHT22;2753;49.196;8.286;2023-10-31T06:37:45;11.10;99.90
5461;DHT22;2753;49.196;8.286;2023-10-31T06:40:11;11.10;99.90
5461;DHT22;2753;49.196;8.286;2023-10-31T06:42:37;11.10;99.90
5461;DHT22;2753;49.196;8.286;2023-10-31T06:45:03;11.10;99.90
5461;DHT22;2753;49.196;8.286;2023-10-31T06:47:30;11.10;99.90
5461;DHT22;2753;49.196;8.286;2023-10-31T06:49:56;11.10;99.90
5461;DHT22;2753;49.196;8.286;2023-10-31T06:52:22;11.10;99.90
5461;DHT22;2753;49.196;8.286;2023-10-31T06:54:49;11.00;99.90
5461;DHT22;2753;49.196;8.286;2023-10-31T06:57:15;11.10;99.90
5461;DHT22;2753;49.196;8.286;2023-10-31T06:59:41;11.00;99.90
5461;DHT22;2753;49.196;8.286;2023-10-31T07:02:07;11.00;99.90
5461;DHT22;2753;49.196;8.286;2023-10-31T07:04:34;11.10;99.90
5461;DHT22;2753;49.196;8.286;2023-10-31T07:07:00;11.10;99.90
5461;DHT22;2753;49.196;8.286;2023-10-31T07:09:26;11.10;99.90
5461;DHT22;2753;49.196;8.286;2023-10-31T07:11:53;11.10;99.90
5461;DHT22;2753;49.196;8.286;2023-10-31T07:14:18;11.10;99.90
5461;DHT22;2753;49.196;8.286;2023-10-31T07:16:46;11.10;99.90
5461;DHT22;2753;49.196;8.286;2023-10-31T07:19:13;11.10;99.90
5461;DHT22;2753;49.196;8.286;2023-10-31T07:21:39;11.10;99.90
5461;DHT22;2753;49.196;8.286;2023-10-31T07:24:08;11.10;99.90
5461;DHT22;2753;49.196;8.286;2023-10-31T07:26:35;11.20;99.90
5461;DHT22;2753;49.196;8.286;2023-10-31T07:29:01;11.20;99.90
5461;DHT22;2753;49.196;8.286;2023-10-31T07:31:27;11.20;99.90
5461;DHT22;2753;49.196;8.286;2023-10-31T07:33:52;11.20;99.90
5461;DHT22;2753;49.196;8.286;2023-10-31T07:36:21;11.30;99.90
5461;DHT22;2753;49.196;8.286;2023-10-31T07:38:47;11.20;99.90
5461;DHT22;2753;49.196;8.286;2023-10-31T07:41:16;11.20;99.90
5461;DHT22;2753;49.196;8.286;2023-10-31T07:43:42;11.20;99.90
5461;DHT22;2753;49.196;8.286;2023-10-31T07:46:07;11.30;99.90
5461;DHT22;2753;49.196;8.286;2023-10-31T07:48:33;11.30;99.90
5461;DHT22;2753;49.196;8.286;2023-10-31T07:50:59;11.40;99.90
5461;DHT22;2753;49.196;8.286;2023-10-31T07:53:24;11.30;99.90
5461;DHT22;2753;49.196;8.286;2023-10-31T07:55:50;11.40;99.90
5461;DHT22;2753;49.196;8.286;2023-10-31T07:58:16;11.40;99.90
5461;DHT22;2753;49.196;8.286;2023-10-31T08:00:42;11.50;99.90
5461;DHT22;2753;49.196;8.286;2023-10-31T08:03:08;11.50;99.90
5461;DHT22;2753;49.196;8.286;2023-10-31T08:05:37;11.50;99.90
5461;DHT22;2753;49.196;8.286;2023-10-31T08:08:03;11.50;99.90
5461;DHT22;2753;49.196;8.286;2023-10-31T08:10:29;11.60;99.90
5461;DHT22;2753;49.196;8.286;2023-10-31T08:12:54;11.60;99.90
5461;DHT22;2753;49.196;8.286;2023-10-31T08:15:20;11.60;99.90
5461;DHT22;2753;49.196;8.286;2023-10-31T08:17:46;11.70;99.90
5461;DHT22;2753;49.196;8.286;2023-10-31T08:20:12;11.70;99.90
5461;DHT22;2753;49.196;8.286;2023-10-31T08:22:39;11.80;99.90
5461;DHT22;2753;49.196;8.286;2023-10-31T08:25:08;11.80;99.90
5461;DHT22;2753;49.196;8.286;2023-10-31T08:27:34;11.90;99.90
5461;DHT22;2753;49.196;8.286;2023-10-31T08:30:00;11.90;99.90
5461;DHT22;2753;49.196;8.286;2023-10-31T08:32:26;12.00;99.90
5461;DHT22;2753;49.196;8.286;2023-10-31T08:34:52;12.00;99.90
5461;DHT22;2753;49.196;8.286;2023-10-31T08:37:19;12.10;99.90
5461;DHT22;2753;49.196;8.286;2023-10-31T08:39:45;12.10;99.90
5461;DHT22;2753;49.196;8.286;2023-10-31T08:42:11;12.20;99.90
5461;DHT22;2753;49.196;8.286;2023-10-31T08:44:36;12.30;99.90
5461;DHT22;2753;49.196;8.286;2023-10-31T08:47:05;12.30;99.90
5461;DHT22;2753;49.196;8.286;2023-10-31T08:49:31;12.40;99.90
5461;DHT22;2753;49.196;8.286;2023-10-31T08:51:57;12.40;99.90
5461;DHT22;2753;49.196;8.286;2023-10-31T08:54:23;12.50;99.90
5461;DHT22;2753;49.196;8.286;2023-10-31T08:56:49;12.60;99.90
5461;DHT22;2753;49.196;8.286;2023-10-31T08:59:15;12.60;99.90
5461;DHT22;2753;49.196;8.286;2023-10-31T09:01:44;12.70;99.90
5461;DHT22;2753;49.196;8.286;2023-10-31T09:04:10;12.70;99.90
5461;DHT22;2753;49.196;8.286;2023-10-31T09:06:36;12.80;99.90
5461;DHT22;2753;49.196;8.286;2023-10-31T09:09:02;12.90;99.90
5461;DHT22;2753;49.196;8.286;2023-10-31T09:11:29;12.90;99.90
5461;DHT22;2753;49.196;8.286;2023-10-31T09:13:55;13.00;99.90
5461;DHT22;2753;49.196;8.286;2023-10-31T09:16:21;13.10;99.90
5461;DHT22;2753;49.196;8.286;2023-10-31T09:18:46;13.10;99.90
5461;DHT22;2753;49.196;8.286;2023-10-31T09:21:12;13.20;99.90
5461;DHT22;2753;49.196;8.286;2023-10-31T09:23:38;13.30;99.90
5461;DHT22;2753;49.196;8.286;2023-10-31T09:26:03;13.30;99.90
5461;DHT22;2753;49.196;8.286;2023-10-31T09:28:29;13.40;99.90
5461;DHT22;2753;49.196;8.286;2023-10-31T09:30:55;13.50;99.90
5461;DHT22;2753;49.196;8.286;2023-10-31T09:33:21;13.60;99.90
5461;DHT22;2753;49.196;8.286;2023-10-31T09:35:46;13.60;99.90
5461;DHT22;2753;49.196;8.286;2023-10-31T09:38:12;13.60;99.90
5461;DHT22;2753;49.196;8.286;2023-10-31T09:40:41;13.50;99.90
5461;DHT22;2753;49.196;8.286;2023-10-31T09:43:07;13.50;99.90
5461;DHT22;2753;49.196;8.286;2023-10-31T09:45:36;13.50;99.90
5461;DHT22;2753;49.196;8.286;2023-10-31T09:48:02;13.50;99.90
5461;DHT22;2753;49.196;8.286;2023-10-31T09:50:30;13.40;99.90
5461;DHT22;2753;49.196;8.286;2023-10-31T09:52:56;13.40;99.90
5461;DHT22;2753;49.196;8.286;2023-10-31T09:55:24;13.40;99.90
5461;DHT22;2753;49.196;8.286;2023-10-31T09:57:50;13.40;99.90
5461;DHT22;2753;49.196;8.286;2023-10-31T10:00:16;13.40;99.90
5461;DHT22;2753;49.196;8.286;2023-10-31T10:02:42;13.40;99.90
5461;DHT22;2753;49.196;8.286;2023-10-31T10:05:09;13.40;99.90
5461;DHT22;2753;49.196;8.286;2023-10-31T10:07:35;13.30;99.90
5461;DHT22;2753;49.196;8.286;2023-10-31T10:10:03;13.30;99.90
5461;DHT22;2753;49.196;8.286;2023-10-31T10:12:29;13.30;99.90
5461;DHT22;2753;49.196;8.286;2023-10-31T10:14:57;13.20;99.90
5461;DHT22;2753;49.196;8.286;2023-10-31T10:17:24;13.20;99.90
5461;DHT22;2753;49.196;8.286;2023-10-31T10:20:07;13.30;99.90
5461;DHT22;2753;49.196;8.286;2023-10-31T10:22:43;13.20;99.90
5461;DHT22;2753;49.196;8.286;2023-10-31T10:25:13;13.20;99.90
5461;DHT22;2753;49.196;8.286;2023-10-31T10:27:44;13.20;99.90
5461;DHT22;2753;49.196;8.286;2023-10-31T10:30:13;13.20;99.90
5461;DHT22;2753;49.196;8.286;2023-10-31T10:32:39;13.20;99.90
5461;DHT22;2753;49.196;8.286;2023-10-31T10:35:06;13.20;99.90
5461;DHT22;2753;49.196;8.286;2023-10-31T10:37:31;13.20;99.90
5461;DHT22;2753;49.196;8.286;2023-10-31T10:39:58;13.20;99.90
5461;DHT22;2753;49.196;8.286;2023-10-31T10:44:58;13.20;99.90
5461;DHT22;2753;49.196;8.286;2023-10-31T10:47:27;13.20;99.90
5461;DHT22;2753;49.196;8.286;2023-10-31T10:49:54;13.30;99.90
5461;DHT22;2753;49.196;8.286;2023-10-31T10:52:27;13.20;99.90
5461;DHT22;2753;49.196;8.286;2023-10-31T11:00:08;13.30;99.90
5461;DHT22;2753;49.196;8.286;2023-10-31T11:02:36;13.30;99.90
5461;DHT22;2753;49.196;8.286;2023-10-31T11:05:05;13.20;99.90
5461;DHT22;2753;49.196;8.286;2023-10-31T11:07:34;13.10;99.90
5461;DHT22;2753;49.196;8.286;2023-10-31T11:10:00;13.20;99.90
5461;DHT22;2753;49.196;8.286;2023-10-31T11:12:29;13.20;99.90
5461;DHT22;2753;49.196;8.286;2023-10-31T11:14:57;13.20;99.90
5461;DHT22;2753;49.196;8.286;2023-10-31T11:17:39;13.20;99.90
5461;DHT22;2753;49.196;8.286;2023-10-31T11:20:30;13.30;99.90
5461;DHT22;2753;49.196;8.286;2023-10-31T11:22:56;13.30;99.90
5461;DHT22;2753;49.196;8.286;2023-10-31T11:33:11;13.50;99.90
5461;DHT22;2753;49.196;8.286;2023-10-31T11:46:20;13.60;99.90
5461;DHT22;2753;49.196;8.286;2023-10-31T11:48:54;13.60;99.90
5461;DHT22;2753;49.196;8.286;2023-10-31T11:51:21;13.60;99.90
5461;DHT22;2753;49.196;8.286;2023-10-31T11:53:48;13.70;99.90
5461;DHT22;2753;49.196;8.286;2023-10-31T11:56:18;13.90;99.90
5461;DHT22;2753;49.196;8.286;2023-10-31T11:58:43;14.00;99.90
5461;DHT22;2753;49.196;8.286;2023-10-31T12:01:10;14.10;99.90
5461;DHT22;2753;49.196;8.286;2023-10-31T12:03:42;14.10;99.90
5461;DHT22;2753;49.196;8.286;2023-10-31T12:06:09;14.40;99.90
5461;DHT22;2753;49.196;8.286;2023-10-31T12:08:40;14.40;99.90
5461;DHT22;2753;49.196;8.286;2023-10-31T12:13:34;14.70;99.90
5461;DHT22;2753;49.196;8.286;2023-10-31T12:16:01;14.80;99.90
5461;DHT22;2753;49.196;8.286;2023-10-31T12:18:29;15.00;99.90
5461;DHT22;2753;49.196;8.286;2023-10-31T12:20:56;15.10;99.90
5461;DHT22;2753;49.196;8.286;2023-10-31T12:23:22;15.10;99.90
5461;DHT22;2753;49.196;8.286;2023-10-31T12:25:48;15.20;99.90
5461;DHT22;2753;49.196;8.286;2023-10-31T12:28:21;15.30;99.90
5461;DHT22;2753;49.196;8.286;2023-10-31T12:30:49;15.60;99.90
5461;DHT22;2753;49.196;8.286;2023-10-31T12:33:18;15.60;99.90
5461;DHT22;2753;49.196;8.286;2023-10-31T12:35:44;15.70;99.90
5461;DHT22;2753;49.196;8.286;2023-10-31T12:38:11;15.90;99.90
5461;DHT22;2753;49.196;8.286;2023-10-31T12:40:38;16.10;99.90
5461;DHT22;2753;49.196;8.286;2023-10-31T12:43:05;16.30;99.90
5461;DHT22;2753;49.196;8.286;2023-10-31T12:45:32;16.50;99.90
5461;DHT22;2753;49.196;8.286;2023-10-31T12:50:28;16.60;99.90
5461;DHT22;2753;49.196;8.286;2023-10-31T12:52:55;16.70;99.90
5461;DHT22;2753;49.196;8.286;2023-10-31T12:55:26;16.80;99.90
5461;DHT22;2753;49.196;8.286;2023-10-31T12:57:53;17.00;99.90
5461;DHT22;2753;49.196;8.286;2023-10-31T13:00:20;17.10;99.90
5461;DHT22;2753;49.196;8.286;2023-10-31T13:02:58;17.10;99.90
5461;DHT22;2753;49.196;8.286;2023-10-31T13:05:26;17.00;99.90
5461;DHT22;2753;49.196;8.286;2023-10-31T13:07:53;16.90;99.90
5461;DHT22;2753;49.196;8.286;2023-10-31T13:10:24;16.80;99.90
5461;DHT22;2753;49.196;8.286;2023-10-31T13:12:53;16.70;99.90
5461;DHT22;2753;49.196;8.286;2023-10-31T13:15:20;16.70;99.90
5461;DHT22;2753;49.196;8.286;2023-10-31T13:17:47;16.50;99.90
5461;DHT22;2753;49.196;8.286;2023-10-31T13:20:17;16.50;99.90
5461;DHT22;2753;49.196;8.286;2023-10-31T13:22:43;16.40;99.90
5461;DHT22;2753;49.196;8.286;2023-10-31T13:25:10;16.50;99.90
5461;DHT22;2753;49.196;8.286;2023-10-31T13:27:38;16.40;99.90
5461;DHT22;2753;49.196;8.286;2023-10-31T13:30:05;16.30;99.90
5461;DHT22;2753;49.196;8.286;2023-10-31T13:32:31;16.30;99.90
5461;DHT22;2753;49.196;8.286;2023-10-31T13:34:57;16.30;99.90
5461;DHT22;2753;49.196;8.286;2023-10-31T13:37:23;16.20;99.90
5461;DHT22;2753;49.196;8.286;2023-10-31T13:39:49;16.20;99.90
5461;DHT22;2753;49.196;8.286;2023-10-31T13:42:14;16.10;99.90
5461;DHT22;2753;49.196;8.286;2023-10-31T13:44:41;16.10;99.90
5461;DHT22;2753;49.196;8.286;2023-10-31T13:47:07;16.10;99.90
5461;DHT22;2753;49.196;8.286;2023-10-31T13:49:33;16.00;99.90
5461;DHT22;2753;49.196;8.286;2023-10-31T13:51:59;16.00;99.90
5461;DHT22;2753;49.196;8.286;2023-10-31T13:54:25;15.90;99.90
5461;DHT22;2753;49.196;8.286;2023-10-31T13:56:51;15.70;99.90
5461;DHT22;2753;49.196;8.286;2023-10-31T13:59:17;15.70;99.90
5461;DHT22;2753;49.196;8.286;2023-10-31T14:01:46;15.70;99.90
5461;DHT22;2753;49.196;8.286;2023-10-31T14:04:12;15.70;99.90
5461;DHT22;2753;49.196;8.286;2023-10-31T14:06:41;15.70;99.90
5461;DHT22;2753;49.196;8.286;2023-10-31T14:09:09;15.50;99.90
5461;DHT22;2753;49.196;8.286;2023-10-31T14:11:36;15.50;99.90
5461;DHT22;2753;49.196;8.286;2023-10-31T14:14:02;15.50;99.90
5461;DHT22;2753;49.196;8.286;2023-10-31T14:16:37;15.20;99.90
5461;DHT22;2753;49.196;8.286;2023-10-31T14:19:07;15.20;99.90
5461;DHT22;2753;49.196;8.286;2023-10-31T14:21:36;15.00;99.90
5461;DHT22;2753;49.196;8.286;2023-10-31T14:24:02;15.00;99.90
5461;DHT22;2753;49.196;8.286;2023-10-31T14:26:29;14.90;99.90
5461;DHT22;2753;49.196;8.286;2023-10-31T14:28:55;15.00;99.90
5461;DHT22;2753;49.196;8.286;2023-10-31T14:31:21;15.00;99.90
5461;DHT22;2753;49.196;8.286;2023-10-31T14:33:47;15.00;99.90
5461;DHT22;2753;49.196;8.286;2023-10-31T14:36:13;15.00;99.90
5461;DHT22;2753;49.196;8.286;2023-10-31T14:38:39;14.90;99.90
5461;DHT22;2753;49.196;8.286;2023-10-31T14:41:06;14.80;99.90
5461;DHT22;2753;49.196;8.286;2023-10-31T14:43:33;14.70;99.90
5461;DHT22;2753;49.196;8.286;2023-10-31T14:45:58;14.80;99.90
5461;DHT22;2753;49.196;8.286;2023-10-31T14:48:25;14.60;99.90
5461;DHT22;2753;49.196;8.286;2023-10-31T14:50:50;14.60;99.90
5461;DHT22;2753;49.196;8.286;2023-10-31T14:53:17;14.50;99.90
5461;DHT22;2753;49.196;8.286;2023-10-31T14:55:47;14.60;99.90
5461;DHT22;2753;49.196;8.286;2023-10-31T14:58:18;14.50;99.90
5461;DHT22;2753;49.196;8.286;2023-10-31T15:00:48;14.30;99.90
5461;DHT22;2753;49.196;8.286;2023-10-31T15:03:16;14.30;99.90
5461;DHT22;2753;49.196;8.286;2023-10-31T15:05:42;14.10;99.90
5461;DHT22;2753;49.196;8.286;2023-10-31T15:08:08;14.10;99.90
5461;DHT22;2753;49.196;8.286;2023-10-31T15:10:33;14.10;99.90
5461;DHT22;2753;49.196;8.286;2023-10-31T15:12:59;14.10;99.90
5461;DHT22;2753;49.196;8.286;2023-10-31T15:15:25;14.10;99.90
5461;DHT22;2753;49.196;8.286;2023-10-31T15:17:50;14.00;99.90
5461;DHT22;2753;49.196;8.286;2023-10-31T15:20:19;14.00;99.90
5461;DHT22;2753;49.196;8.286;2023-10-31T15:22:45;13.90;99.90
5461;DHT22;2753;49.196;8.286;2023-10-31T15:25:11;13.70;99.90
5461;DHT22;2753;49.196;8.286;2023-10-31T15:27:38;13.70;99.90
5461;DHT22;2753;49.196;8.286;2023-10-31T15:30:08;13.80;99.90
5461;DHT22;2753;49.196;8.286;2023-10-31T15:32:35;13.90;99.90
5461;DHT22;2753;49.196;8.286;2023-10-31T15:35:00;13.90;99.90
5461;DHT22;2753;49.196;8.286;2023-10-31T15:37:27;13.80;99.90
5461;DHT22;2753;49.196;8.286;2023-10-31T15:39:53;13.80;99.90
5461;DHT22;2753;49.196;8.286;2023-10-31T15:42:18;13.70;99.90
5461;DHT22;2753;49.196;8.286;2023-10-31T15:44:44;13.70;99.90
5461;DHT22;2753;49.196;8.286;2023-10-31T15:47:10;13.60;99.90
5461;DHT22;2753;49.196;8.286;2023-10-31T15:49:36;13.70;99.90
5461;DHT22;2753;49.196;8.286;2023-10-31T15:52:02;13.60;99.90
5461;DHT22;2753;49.196;8.286;2023-10-31T15:54:28;13.70;99.90
5461;DHT22;2753;49.196;8.286;2023-10-31T15:56:54;13.80;99.90
5461;DHT22;2753;49.196;8.286;2023-10-31T15:59:20;13.70;99.90
5461;DHT22;2753;49.196;8.286;2023-10-31T16:01:46;13.70;99.90
5461;DHT22;2753;49.196;8.286;2023-10-31T16:04:11;13.70;99.90
5461;DHT22;2753;49.196;8.286;2023-10-31T16:06:37;13.60;99.90
5461;DHT22;2753;49.196;8.286;2023-10-31T16:09:03;13.60;99.90
5461;DHT22;2753;49.196;8.286;2023-10-31T16:11:29;13.50;99.90
5461;DHT22;2753;49.196;8.286;2023-10-31T16:13:57;13.50;99.90
5461;DHT22;2753;49.196;8.286;2023-10-31T16:16:23;13.50;99.90
5461;DHT22;2753;49.196;8.286;2023-10-31T16:18:49;13.50;99.90
5461;DHT22;2753;49.196;8.286;2023-10-31T16:21:19;13.50;99.90
5461;DHT22;2753;49.196;8.286;2023-10-31T16:23:46;13.50;99.90
5461;DHT22;2753;49.196;8.286;2023-10-31T16:26:12;13.50;99.90
5461;DHT22;2753;49.196;8.286;2023-10-31T16:28:38;13.40;99.90
5461;DHT22;2753;49.196;8.286;2023-10-31T16:31:05;13.30;99.90
5461;DHT22;2753;49.196;8.286;2023-10-31T16:33:31;13.30;99.90